createdAt,value
2023-05-19T00:02:24.113Z,59.82
2023-05-19T00:04:50.993Z,59.15
2023-05-19T00:07:18.321Z,59.68
2023-05-19T00:09:45.049Z,60.13
2023-05-19T00:12:12.500Z,59.17
2023-05-19T00:14:39.375Z,59.91
2023-05-19T00:19:50.574Z,60.42
2023-05-19T00:22:17.254Z,60.36
2023-05-19T00:24:44.039Z,60.11
2023-05-19T00:27:10.737Z,59.32
2023-05-19T00:29:37.423Z,60.21
2023-05-19T00:32:04.270Z,59.83
2023-05-19T00:34:30.980Z,59.84
2023-05-19T00:36:57.647Z,59.94
2023-05-19T00:39:24.329Z,58.86
2023-05-19T00:41:50.972Z,59.06
2023-05-19T00:44:17.597Z,59.85
2023-05-19T00:46:44.287Z,59.04
2023-05-19T00:49:10.973Z,58.78
2023-05-19T00:51:37.599Z,59.48
2023-05-19T00:54:04.495Z,59.03
2023-05-19T00:56:31.319Z,59.29
2023-05-19T00:58:57.993Z,58.59
2023-05-19T01:01:24.723Z,59.40
2023-05-19T01:03:51.551Z,59.37
2023-05-19T01:06:18.284Z,59.22
2023-05-19T01:08:44.913Z,59.22
2023-05-19T01:11:11.586Z,59.52
2023-05-19T01:13:40.340Z,59.77
2023-05-19T01:16:11.180Z,60.45
2023-05-19T01:18:37.750Z,59.90
2023-05-19T01:21:31.645Z,59.66
2023-05-19T01:24:07.374Z,58.84
2023-05-19T01:26:58.846Z,58.64
2023-05-19T01:29:48.058Z,58.90
2023-05-19T01:32:14.802Z,59.37
2023-05-19T01:34:43.179Z,59.61
2023-05-19T01:37:09.902Z,59.94
2023-05-19T01:39:36.568Z,59.89
2023-05-19T01:42:03.283Z,60.62
2023-05-19T01:44:29.913Z,61.19
2023-05-19T01:46:56.603Z,59.69
2023-05-19T01:49:23.299Z,59.99
2023-05-19T01:51:50.040Z,60.02
2023-05-19T01:54:16.723Z,59.45
2023-05-19T01:57:00.746Z,60.35
2023-05-19T01:59:48.601Z,60.00
2023-05-19T02:02:44.017Z,59.56
2023-05-19T02:05:15.151Z,59.89
2023-05-19T02:07:50.423Z,60.16
2023-05-19T02:10:23.756Z,60.41
2023-05-19T02:12:50.681Z,59.97
2023-05-19T02:15:17.982Z,59.44
2023-05-19T02:17:45.336Z,59.60
2023-05-19T02:20:12.103Z,59.72
2023-05-19T02:22:38.902Z,60.22
2023-05-19T02:25:05.792Z,59.63
2023-05-19T02:27:32.593Z,59.11
2023-05-19T02:29:59.274Z,59.37
2023-05-19T02:32:26.095Z,59.22
2023-05-19T02:34:52.800Z,58.43
2023-05-19T02:37:19.431Z,59.85
2023-05-19T02:39:46.049Z,59.77
2023-05-19T02:42:12.724Z,60.22
2023-05-19T02:44:39.368Z,59.54
2023-05-19T02:47:05.989Z,60.22
2023-05-19T02:49:32.628Z,60.29
2023-05-19T02:51:59.256Z,59.86
2023-05-19T02:54:25.926Z,60.14
2023-05-19T02:56:52.569Z,60.65
2023-05-19T02:59:19.198Z,60.33
2023-05-19T03:01:45.893Z,59.82
2023-05-19T03:04:12.602Z,59.65
2023-05-19T03:06:39.473Z,59.23
2023-05-19T03:09:06.161Z,59.88
2023-05-19T03:11:32.849Z,59.23
2023-05-19T03:13:59.537Z,59.01
2023-05-19T03:16:26.257Z,59.13
2023-05-19T03:18:52.967Z,59.06
2023-05-19T03:21:19.636Z,59.86
2023-05-19T03:23:46.332Z,59.62
2023-05-19T03:26:12.977Z,59.25
2023-05-19T03:28:39.626Z,58.74
2023-05-19T03:31:06.369Z,59.15
2023-05-19T03:33:33.110Z,59.31
2023-05-19T03:35:59.851Z,59.04
2023-05-19T03:38:26.533Z,58.74
2023-05-19T03:40:53.165Z,59.24
2023-05-19T03:43:19.804Z,59.13
2023-05-19T03:45:46.494Z,58.44
2023-05-19T03:48:13.206Z,58.94
2023-05-19T03:50:39.916Z,58.17
2023-05-19T03:53:06.598Z,59.04
2023-05-19T03:55:33.237Z,59.44
2023-05-19T03:57:59.858Z,58.31
2023-05-19T04:00:26.662Z,59.80
2023-05-19T04:02:53.439Z,58.77
2023-05-19T04:05:20.180Z,59.85
2023-05-19T04:07:46.905Z,58.80
2023-05-19T04:10:13.633Z,58.94
2023-05-19T04:12:40.275Z,59.63
2023-05-19T04:15:07.471Z,59.21
2023-05-19T04:17:34.186Z,58.62
2023-05-19T04:20:00.838Z,59.23
2023-05-19T04:22:27.501Z,59.33
2023-05-19T04:24:54.167Z,58.89
2023-05-19T04:27:20.793Z,59.43
2023-05-19T04:29:47.459Z,59.23
2023-05-19T04:32:14.219Z,59.19
2023-05-19T04:34:40.907Z,58.97
2023-05-19T04:37:07.699Z,58.44
2023-05-19T04:39:34.414Z,59.01
2023-05-19T04:42:01.154Z,58.46
2023-05-19T04:44:27.849Z,59.17
2023-05-19T04:46:54.686Z,58.23
2023-05-19T04:49:21.479Z,59.47
2023-05-19T04:51:48.161Z,57.95
2023-05-19T04:54:14.792Z,57.93
2023-05-19T04:56:41.432Z,58.13
2023-05-19T04:59:08.110Z,57.64
2023-05-19T05:01:34.809Z,57.71
2023-05-19T05:04:01.479Z,57.86
2023-05-19T05:06:28.179Z,58.20
2023-05-19T05:08:54.807Z,57.34
2023-05-19T05:11:21.658Z,58.05
2023-05-19T05:13:48.622Z,57.25
2023-05-19T05:16:15.755Z,57.06
2023-05-19T05:18:44.900Z,56.92
2023-05-19T05:21:12.196Z,57.10
2023-05-19T05:23:39.119Z,57.63
2023-05-19T05:26:10.657Z,57.09
2023-05-19T05:28:37.344Z,57.17
2023-05-19T05:31:04.031Z,57.02
2023-05-19T05:33:30.734Z,57.35
2023-05-19T05:35:57.483Z,57.78
2023-05-19T05:38:24.287Z,57.89
2023-05-19T05:40:51.036Z,57.53
2023-05-19T05:43:17.681Z,58.13
2023-05-19T05:45:44.412Z,58.13
2023-05-19T05:48:11.332Z,57.50
2023-05-19T05:50:38.398Z,55.85
2023-05-19T05:53:05.552Z,55.92
2023-05-19T05:55:32.552Z,54.97
2023-05-19T05:57:59.410Z,53.76
2023-05-19T06:00:26.054Z,55.58
2023-05-19T06:02:52.880Z,55.88
2023-05-19T06:05:19.671Z,55.15
2023-05-19T06:07:46.381Z,53.42
2023-05-19T06:10:13.082Z,52.66
2023-05-19T06:12:39.733Z,53.31
2023-05-19T06:15:07.220Z,54.07
2023-05-19T06:17:34.163Z,52.03
2023-05-19T06:20:00.809Z,52.02
2023-05-19T06:22:27.429Z,51.67
2023-05-19T06:24:54.284Z,51.07
2023-05-19T06:27:20.970Z,52.25
2023-05-19T06:29:47.648Z,53.89
2023-05-19T06:32:15.045Z,50.22
2023-05-19T06:34:41.737Z,50.72
2023-05-19T06:37:08.408Z,50.44
2023-05-19T06:39:35.116Z,51.32
2023-05-19T06:42:01.767Z,53.44
2023-05-19T06:44:28.422Z,51.72
2023-05-19T06:46:55.148Z,51.04
2023-05-19T06:49:21.873Z,50.64
2023-05-19T06:51:48.705Z,50.33
2023-05-19T06:54:15.342Z,49.64
2023-05-19T06:56:42.037Z,50.00
2023-05-19T06:59:08.684Z,50.78
2023-05-19T07:01:35.330Z,49.62
2023-05-19T07:04:02.200Z,50.50
2023-05-19T07:06:29.442Z,50.05
2023-05-19T07:08:56.089Z,51.21
2023-05-19T07:11:23.438Z,49.02
2023-05-19T07:13:50.127Z,49.10
2023-05-19T07:16:16.896Z,48.47
2023-05-19T07:18:43.834Z,48.66
2023-05-19T07:21:10.518Z,48.34
2023-05-19T07:23:39.250Z,48.22
2023-05-19T07:26:05.952Z,47.53
2023-05-19T07:28:32.593Z,47.33
2023-05-19T07:30:59.276Z,47.55
2023-05-19T07:33:26.009Z,47.53
2023-05-19T07:35:53.264Z,47.63
2023-05-19T07:38:19.941Z,47.65
2023-05-19T07:40:46.561Z,46.55
2023-05-19T07:43:13.234Z,47.61
2023-05-19T07:45:39.884Z,48.48
2023-05-19T07:48:06.610Z,48.36
2023-05-19T07:50:33.369Z,49.70
2023-05-19T07:53:00.140Z,47.39
2023-05-19T07:55:26.825Z,47.39
2023-05-19T07:57:53.585Z,47.59
2023-05-19T08:00:20.349Z,47.81
2023-05-19T08:02:47.075Z,45.98
2023-05-19T08:05:13.810Z,45.64
2023-05-19T08:07:40.512Z,45.52
2023-05-19T08:10:07.597Z,44.24
2023-05-19T08:12:34.283Z,44.89
2023-05-19T08:15:01.839Z,45.05
2023-05-19T08:17:28.770Z,45.65
2023-05-19T08:19:55.471Z,44.49
2023-05-19T08:22:22.129Z,44.96
2023-05-19T08:24:48.798Z,45.39
2023-05-19T08:27:15.967Z,45.90
2023-05-19T08:29:43.016Z,46.07
2023-05-19T08:32:11.619Z,47.36
2023-05-19T08:34:39.901Z,46.66
2023-05-19T08:37:06.880Z,46.52
2023-05-19T08:39:33.559Z,45.17
2023-05-19T08:42:00.504Z,44.01
2023-05-19T08:44:27.189Z,44.35
2023-05-19T08:46:54.790Z,44.98
2023-05-19T08:49:27.758Z,44.37
2023-05-19T08:52:29.442Z,44.94
2023-05-19T08:54:59.453Z,45.01
2023-05-19T08:57:26.586Z,43.43
2023-05-19T08:59:53.354Z,43.77
2023-05-19T09:02:20.126Z,44.41
2023-05-19T09:04:46.890Z,44.67
2023-05-19T09:07:16.554Z,45.29
2023-05-19T09:09:43.277Z,44.34
2023-05-19T09:12:10.758Z,43.23
2023-05-19T09:14:38.084Z,44.34
2023-05-19T09:17:04.984Z,44.43
2023-05-19T09:19:31.855Z,45.08
2023-05-19T09:21:59.192Z,43.73
2023-05-19T09:24:26.034Z,44.06
2023-05-19T09:26:54.819Z,44.92
2023-05-19T09:29:21.753Z,45.03
2023-05-19T09:31:48.983Z,45.50
2023-05-19T09:34:15.700Z,43.80
2023-05-19T09:36:42.507Z,43.84
2023-05-19T09:39:16.116Z,43.75
2023-05-19T09:41:42.799Z,44.43
2023-05-19T09:44:25.726Z,44.44
2023-05-19T09:46:53.327Z,44.44
2023-05-19T09:49:20.726Z,44.09
2023-05-19T09:51:58.803Z,44.08
2023-05-19T09:54:25.989Z,44.03
2023-05-19T09:57:03.323Z,43.75
2023-05-19T09:59:33.004Z,44.37
2023-05-19T10:02:00.822Z,46.03
2023-05-19T10:04:28.276Z,43.54
2023-05-19T10:06:55.717Z,41.94
2023-05-19T10:09:26.115Z,42.41
2023-05-19T10:11:53.086Z,41.76
2023-05-19T10:14:23.646Z,41.70
2023-05-19T10:16:54.955Z,41.64
2023-05-19T10:19:22.775Z,40.69
2023-05-19T10:21:49.641Z,41.30
2023-05-19T10:24:16.306Z,41.55
2023-05-19T10:26:56.937Z,41.20
2023-05-19T10:29:27.319Z,39.36
2023-05-19T10:31:54.291Z,40.57
2023-05-19T10:34:54.438Z,42.87
2023-05-19T10:37:36.256Z,40.39
2023-05-19T10:40:07.013Z,40.45
2023-05-19T10:42:40.946Z,40.81
2023-05-19T10:45:16.905Z,41.89
2023-05-19T10:47:44.037Z,42.49
2023-05-19T10:50:10.819Z,42.08
2023-05-19T10:52:38.065Z,41.95
2023-05-19T10:55:07.463Z,41.33
2023-05-19T10:57:34.212Z,41.09
2023-05-19T11:00:03.958Z,41.45
2023-05-19T11:02:50.761Z,42.25
2023-05-19T11:05:17.526Z,40.73
2023-05-19T11:07:44.741Z,40.96
2023-05-19T11:10:11.696Z,40.97
2023-05-19T11:12:45.433Z,41.35
2023-05-19T11:15:13.389Z,40.07
2023-05-19T11:17:40.560Z,38.94
2023-05-19T11:20:08.586Z,39.50
2023-05-19T11:22:35.229Z,40.10
2023-05-19T11:25:01.871Z,41.17
2023-05-19T11:27:35.353Z,41.58
2023-05-19T11:30:08.982Z,39.77
2023-05-19T11:32:36.034Z,39.74
2023-05-19T11:35:02.810Z,40.07
2023-05-19T11:37:32.005Z,38.67
2023-05-19T11:40:00.201Z,38.07
2023-05-19T11:42:26.860Z,38.94
2023-05-19T11:44:55.345Z,40.01
2023-05-19T11:47:21.983Z,39.34
2023-05-19T11:49:48.614Z,39.39
2023-05-19T11:52:15.296Z,40.19
2023-05-19T11:54:41.941Z,39.68
2023-05-19T11:57:09.288Z,39.79
2023-05-19T11:59:36.923Z,38.91
2023-05-19T12:02:12.667Z,38.71
2023-05-19T12:04:39.547Z,39.87
2023-05-19T12:07:06.329Z,37.94
2023-05-19T12:09:32.972Z,38.40
2023-05-19T12:11:59.806Z,38.18
2023-05-19T12:14:26.717Z,38.72
2023-05-19T12:16:53.396Z,39.63
2023-05-19T12:19:23.227Z,39.99
2023-05-19T12:21:50.099Z,40.60
2023-05-19T12:24:16.793Z,39.75
2023-05-19T12:26:43.451Z,39.16
2023-05-19T12:29:10.149Z,38.60
2023-05-19T12:31:36.977Z,39.16
2023-05-19T12:34:03.707Z,40.63
2023-05-19T12:36:32.132Z,39.55
2023-05-19T12:38:58.828Z,39.72
2023-05-19T12:41:25.634Z,39.27
2023-05-19T12:43:52.460Z,40.85
2023-05-19T12:46:19.206Z,39.07
2023-05-19T12:48:46.489Z,38.05
2023-05-19T12:51:17.367Z,38.45
2023-05-19T12:53:44.585Z,38.25
2023-05-19T12:56:15.242Z,37.81
2023-05-19T12:58:42.217Z,38.92
2023-05-19T13:01:15.855Z,38.02
2023-05-19T13:03:42.809Z,36.65
2023-05-19T13:06:09.695Z,36.95
2023-05-19T13:08:37.020Z,37.17
2023-05-19T13:11:03.760Z,36.29
2023-05-19T13:13:30.397Z,35.94
2023-05-19T13:15:57.059Z,37.10
2023-05-19T13:18:23.784Z,35.25
2023-05-19T13:20:50.531Z,35.78
2023-05-19T13:23:17.287Z,35.90
2023-05-19T13:25:44.010Z,35.58
2023-05-19T13:28:10.779Z,35.54
2023-05-19T13:30:38.762Z,35.32
2023-05-19T13:33:05.669Z,36.30
2023-05-19T13:35:32.382Z,36.18
2023-05-19T13:37:59.152Z,36.27
2023-05-19T13:40:25.835Z,36.14
2023-05-19T13:42:52.538Z,34.92
2023-05-19T13:45:19.196Z,35.36
2023-05-19T13:47:45.922Z,33.72
2023-05-19T13:50:12.823Z,34.37
2023-05-19T13:52:39.633Z,34.06
2023-05-19T13:55:06.927Z,32.46
2023-05-19T13:57:33.579Z,32.92
2023-05-19T14:00:02.436Z,32.67
2023-05-19T14:02:29.822Z,33.09
2023-05-19T14:04:57.070Z,33.59
2023-05-19T14:07:23.781Z,33.53
2023-05-19T14:09:50.443Z,34.21
2023-05-19T14:12:17.258Z,34.22
2023-05-19T14:14:43.967Z,34.41
2023-05-19T14:17:10.662Z,33.84
2023-05-19T14:19:37.416Z,33.96
2023-05-19T14:22:04.342Z,34.78
2023-05-19T14:24:31.044Z,33.88
2023-05-19T14:26:57.721Z,33.41
2023-05-19T14:29:24.413Z,33.41
2023-05-19T14:31:51.205Z,33.18
2023-05-19T14:34:17.906Z,34.40
2023-05-19T14:36:44.575Z,33.95
2023-05-19T14:39:11.265Z,34.04
2023-05-19T14:41:37.966Z,33.89
2023-05-19T14:44:04.947Z,33.53
2023-05-19T14:46:31.628Z,33.63
2023-05-19T14:48:58.343Z,34.24
2023-05-19T14:51:24.988Z,33.83
2023-05-19T14:53:51.657Z,33.90
2023-05-19T14:56:18.431Z,34.82
2023-05-19T14:58:45.131Z,34.74
2023-05-19T15:01:11.893Z,35.13
2023-05-19T15:03:38.686Z,35.13
2023-05-19T15:06:09.158Z,35.58
2023-05-19T15:08:35.851Z,35.95
2023-05-19T15:11:02.519Z,36.06
2023-05-19T15:13:29.246Z,35.62
2023-05-19T15:16:08.281Z,36.44
2023-05-19T15:18:42.083Z,35.45
2023-05-19T15:21:08.805Z,35.95
2023-05-19T15:23:35.502Z,36.79
2023-05-19T15:26:02.143Z,36.92
2023-05-19T15:28:28.843Z,36.70
2023-05-19T15:30:55.579Z,37.18
2023-05-19T15:33:22.366Z,37.16
2023-05-19T15:35:49.053Z,37.63
2023-05-19T15:38:15.742Z,37.52
2023-05-19T15:40:42.449Z,37.50
2023-05-19T15:43:10.272Z,38.16
2023-05-19T15:45:36.983Z,38.14
2023-05-19T15:48:03.810Z,38.42
2023-05-19T15:50:30.559Z,38.50
2023-05-19T15:52:57.277Z,38.64
2023-05-19T15:55:23.982Z,39.00
2023-05-19T15:57:50.662Z,39.61
2023-05-19T16:00:17.304Z,39.96
2023-05-19T16:02:44.044Z,40.04
2023-05-19T16:05:10.746Z,39.37
2023-05-19T16:07:37.500Z,40.05
2023-05-19T16:10:04.564Z,41.28
2023-05-19T16:12:31.210Z,40.65
2023-05-19T16:14:57.883Z,40.76
2023-05-19T16:17:24.563Z,40.56
2023-05-19T16:19:51.245Z,41.47
2023-05-19T16:22:19.025Z,41.37
2023-05-19T16:24:45.670Z,41.58
2023-05-19T16:27:12.295Z,41.42
2023-05-19T16:29:38.987Z,42.25
2023-05-19T16:32:05.821Z,41.49
2023-05-19T16:34:32.604Z,42.08
2023-05-19T16:36:59.304Z,41.57
2023-05-19T16:39:26.014Z,41.31
2023-05-19T16:41:52.734Z,40.93
2023-05-19T16:44:19.400Z,41.10
2023-05-19T16:46:46.124Z,41.65
2023-05-19T16:49:12.748Z,41.97
2023-05-19T16:51:39.461Z,40.52
2023-05-19T16:54:06.137Z,40.48
2023-05-19T16:56:32.779Z,41.04
2023-05-19T16:58:59.423Z,41.01
2023-05-19T17:01:26.198Z,40.97
2023-05-19T17:03:53.048Z,40.90
2023-05-19T17:06:19.883Z,40.80
2023-05-19T17:08:46.633Z,41.16
2023-05-19T17:11:13.352Z,41.66
2023-05-19T17:13:40.047Z,42.80
2023-05-19T17:16:06.740Z,42.50
2023-05-19T17:18:33.428Z,42.50
2023-05-19T17:21:02.240Z,42.26
2023-05-19T17:23:29.281Z,41.85
2023-05-19T17:25:55.930Z,41.48
2023-05-19T17:28:22.633Z,41.06
2023-05-19T17:30:49.401Z,40.97
2023-05-19T17:33:16.173Z,40.30
2023-05-19T17:35:42.934Z,40.27
2023-05-19T17:38:09.615Z,40.91
2023-05-19T17:40:36.471Z,40.79
2023-05-19T17:43:03.331Z,41.50
2023-05-19T17:45:29.982Z,41.56
2023-05-19T17:47:57.438Z,41.79
2023-05-19T17:50:25.204Z,42.30
2023-05-19T17:52:52.183Z,43.18
2023-05-19T17:55:19.524Z,42.75
2023-05-19T17:57:46.447Z,42.54
2023-05-19T18:00:13.529Z,42.04
2023-05-19T18:02:40.707Z,42.73
2023-05-19T18:05:07.965Z,42.47
2023-05-19T18:07:34.682Z,42.93
2023-05-19T18:10:01.338Z,43.04
2023-05-19T18:12:28.007Z,43.46
2023-05-19T18:14:55.009Z,43.70
2023-05-19T18:17:21.748Z,43.46
2023-05-19T18:19:48.389Z,43.30
2023-05-19T18:22:15.101Z,43.65
2023-05-19T18:24:41.807Z,43.42
2023-05-19T18:27:08.478Z,43.65
2023-05-19T18:29:35.209Z,43.70
2023-05-19T18:32:01.959Z,43.73
2023-05-19T18:34:29.318Z,43.65
2023-05-19T18:36:56.041Z,44.62
2023-05-19T18:39:22.785Z,44.62
2023-05-19T18:41:49.408Z,44.71
2023-05-19T18:44:16.107Z,44.36
2023-05-19T18:46:42.759Z,44.75
2023-05-19T18:49:11.605Z,44.34
2023-05-19T18:51:38.529Z,45.32
2023-05-19T18:54:05.216Z,44.89
2023-05-19T18:56:32.585Z,45.24
2023-05-19T18:58:59.287Z,45.64
2023-05-19T19:01:25.996Z,45.94
2023-05-19T19:03:52.678Z,46.03
2023-05-19T19:06:19.369Z,46.19
2023-05-19T19:08:46.260Z,46.85
2023-05-19T19:11:12.953Z,47.28
2023-05-19T19:13:39.587Z,47.18
2023-05-19T19:16:06.663Z,47.18
2023-05-19T19:18:33.332Z,46.79
2023-05-19T19:20:59.984Z,46.62
2023-05-19T19:23:26.692Z,46.65
2023-05-19T19:25:55.232Z,46.37
2023-05-19T19:28:22.256Z,46.48
2023-05-19T19:30:49.167Z,46.25
2023-05-19T19:33:15.886Z,46.73
2023-05-19T19:35:45.192Z,46.60
2023-05-19T19:38:11.910Z,46.34
2023-05-19T19:40:39.617Z,46.29
2023-05-19T19:43:06.304Z,46.37
2023-05-19T19:45:32.960Z,46.53
2023-05-19T19:47:59.649Z,46.56
2023-05-19T19:50:26.330Z,47.00
2023-05-19T19:52:53.020Z,48.24
2023-05-19T19:55:19.691Z,47.12
2023-05-19T19:57:46.375Z,46.84
2023-05-19T20:00:13.503Z,47.58
2023-05-19T20:02:51.625Z,47.75
2023-05-19T20:05:22.384Z,47.74
2023-05-19T20:07:49.083Z,47.49
2023-05-19T20:10:15.747Z,47.73
2023-05-19T20:12:42.425Z,47.60
2023-05-19T20:15:09.576Z,47.90
2023-05-19T20:17:36.334Z,47.41
2023-05-19T20:20:03.064Z,47.85
2023-05-19T20:22:29.790Z,47.79
2023-05-19T20:24:56.527Z,47.74
2023-05-19T20:27:23.213Z,47.35
2023-05-19T20:29:49.996Z,48.05
2023-05-19T20:32:16.630Z,47.76
2023-05-19T20:34:43.444Z,47.62
2023-05-19T20:37:10.544Z,48.36
2023-05-19T20:39:37.232Z,48.27
2023-05-19T20:42:03.991Z,48.51
2023-05-19T20:44:30.779Z,48.86
2023-05-19T20:46:57.554Z,49.20
2023-05-19T20:49:24.266Z,49.58
2023-05-19T20:51:50.981Z,49.62
2023-05-19T20:54:17.642Z,49.16
2023-05-19T20:56:44.352Z,49.23
2023-05-19T20:59:11.042Z,49.12
2023-05-19T21:01:38.010Z,49.95
2023-05-19T21:04:04.783Z,49.85
2023-05-19T21:06:31.461Z,50.14
2023-05-19T21:08:58.130Z,50.72
2023-05-19T21:11:24.853Z,51.40
2023-05-19T21:13:51.509Z,50.65
2023-05-19T21:16:18.203Z,50.48
2023-05-19T21:18:44.951Z,51.03
2023-05-19T21:21:11.700Z,51.05
2023-05-19T21:23:38.410Z,51.42
2023-05-19T21:26:05.251Z,50.82
2023-05-19T21:28:31.965Z,50.71
2023-05-19T21:30:58.679Z,50.33
2023-05-19T21:33:25.372Z,50.24
2023-05-19T21:35:52.180Z,50.10
2023-05-19T21:38:23.747Z,50.00
2023-05-19T21:40:51.099Z,50.12
2023-05-19T21:43:17.781Z,50.35
2023-05-19T21:45:44.450Z,50.82
2023-05-19T21:48:11.106Z,50.15
2023-05-19T21:50:38.118Z,50.43
2023-05-19T21:53:05.171Z,50.25
2023-05-19T21:55:31.869Z,50.58
2023-05-19T21:58:00.319Z,50.85
2023-05-19T22:00:29.050Z,51.13
2023-05-19T22:02:55.813Z,51.26
2023-05-19T22:05:22.597Z,51.37
2023-05-19T22:07:49.344Z,51.48
2023-05-19T22:10:16.122Z,51.43
2023-05-19T22:12:42.828Z,51.40
2023-05-19T22:15:10.223Z,50.61
2023-05-19T22:17:37.024Z,51.06
2023-05-19T22:20:04.040Z,51.38
2023-05-19T22:22:30.723Z,51.67
2023-05-19T22:24:57.405Z,50.96
2023-05-19T22:27:24.053Z,51.21
2023-05-19T22:29:50.756Z,51.80
2023-05-19T22:32:17.488Z,51.85
2023-05-19T22:34:44.414Z,51.88
2023-05-19T22:37:11.268Z,52.40
2023-05-19T22:39:38.807Z,52.03
2023-05-19T22:42:05.737Z,52.19
2023-05-19T22:44:32.453Z,52.84
2023-05-19T22:46:59.138Z,52.93
2023-05-19T22:49:25.781Z,52.19
2023-05-19T22:51:52.484Z,52.28
2023-05-19T22:54:19.209Z,51.71
2023-05-19T22:56:46.536Z,51.52
2023-05-19T22:59:13.246Z,51.55
2023-05-19T23:01:40.021Z,52.00
2023-05-19T23:04:06.837Z,51.81
2023-05-19T23:06:33.563Z,52.19
2023-05-19T23:09:03.487Z,52.43
2023-05-19T23:11:30.175Z,51.94
2023-05-19T23:13:56.909Z,51.95
2023-05-19T23:16:23.620Z,52.13
2023-05-19T23:18:50.326Z,52.11
2023-05-19T23:21:17.113Z,52.43
2023-05-19T23:23:43.812Z,52.41
2023-05-19T23:26:10.517Z,52.74
2023-05-19T23:28:37.181Z,53.43
2023-05-19T23:31:03.857Z,53.18
2023-05-19T23:33:30.566Z,53.00
2023-05-19T23:35:57.866Z,53.24
2023-05-19T23:38:24.533Z,52.64
2023-05-19T23:40:51.173Z,52.87
2023-05-19T23:43:17.910Z,53.04
2023-05-19T23:45:44.683Z,53.29
2023-05-19T23:48:11.396Z,52.82
2023-05-19T23:50:38.063Z,52.57
2023-05-19T23:53:04.700Z,52.34
2023-05-19T23:55:31.592Z,51.92
2023-05-19T23:57:58.451Z,51.87
